sensor_id;sensor_type;location;lat;lon;timestamp;temperature;humidity
45803;DHT22;31504;51.716;9.184;2022-07-04T00:01:36;24.60;50.60
45803;DHT22;31504;51.716;9.184;2022-07-04T00:04:37;24.60;50.60
45803;DHT22;31504;51.716;9.184;2022-07-04T00:07:42;24.60;50.60
45803;DHT22;31504;51.716;9.184;2022-07-04T00:10:43;24.60;50.60
45803;DHT22;31504;51.716;9.184;2022-07-04T00:13:43;24.60;50.60
45803;DHT22;31504;51.716;9.184;2022-07-04T00:16:44;24.60;50.60
45803;DHT22;31504;51.716;9.184;2022-07-04T00:19:44;24.60;50.50
45803;DHT22;31504;51.716;9.184;2022-07-04T00:22:45;24.60;50.60
45803;DHT22;31504;51.716;9.184;2022-07-04T00:25:45;24.60;50.60
45803;DHT22;31504;51.716;9.184;2022-07-04T00:28:47;24.60;50.70
45803;DHT22;31504;51.716;9.184;2022-07-04T00:31:47;24.60;50.60
45803;DHT22;31504;51.716;9.184;2022-07-04T00:34:48;24.60;50.70
45803;DHT22;31504;51.716;9.184;2022-07-04T00:37:48;24.60;50.60
45803;DHT22;31504;51.716;9.184;2022-07-04T00:40:49;24.60;50.70
45803;DHT22;31504;51.716;9.184;2022-07-04T00:44:10;24.60;50.70
45803;DHT22;31504;51.716;9.184;2022-07-04T00:47:11;24.60;50.60
45803;DHT22;31504;51.716;9.184;2022-07-04T00:50:12;24.60;50.70
45803;DHT22;31504;51.716;9.184;2022-07-04T00:53:16;24.60;50.70
45803;DHT22;31504;51.716;9.184;2022-07-04T00:56:18;24.60;50.70
45803;DHT22;31504;51.716;9.184;2022-07-04T00:59:18;24.60;50.70
45803;DHT22;31504;51.716;9.184;2022-07-04T01:02:19;24.50;50.60
45803;DHT22;31504;51.716;9.184;2022-07-04T01:05:19;24.60;50.70
45803;DHT22;31504;51.716;9.184;2022-07-04T01:08:20;24.60;50.70
45803;DHT22;31504;51.716;9.184;2022-07-04T01:11:20;24.60;50.70
45803;DHT22;31504;51.716;9.184;2022-07-04T01:14:21;24.60;50.60
45803;DHT22;31504;51.716;9.184;2022-07-04T01:17:21;24.50;50.60
45803;DHT22;31504;51.716;9.184;2022-07-04T01:20:22;24.60;50.60
45803;DHT22;31504;51.716;9.184;2022-07-04T01:23:24;24.50;50.60
45803;DHT22;31504;51.716;9.184;2022-07-04T01:26:25;24.50;50.60
45803;DHT22;31504;51.716;9.184;2022-07-04T01:29:25;24.60;50.60
45803;DHT22;31504;51.716;9.184;2022-07-04T01:32:26;24.50;50.60
45803;DHT22;31504;51.716;9.184;2022-07-04T01:35:27;24.60;50.60
45803;DHT22;31504;51.716;9.184;2022-07-04T01:38:27;24.50;50.50
45803;DHT22;31504;51.716;9.184;2022-07-04T01:41:33;24.50;50.50
45803;DHT22;31504;51.716;9.184;2022-07-04T01:44:34;24.50;50.50
45803;DHT22;31504;51.716;9.184;2022-07-04T01:47:35;24.50;50.50
45803;DHT22;31504;51.716;9.184;2022-07-04T01:50:37;24.50;50.50
45803;DHT22;31504;51.716;9.184;2022-07-04T01:53:38;24.50;50.50
45803;DHT22;31504;51.716;9.184;2022-07-04T01:56:42;24.50;50.50
45803;DHT22;31504;51.716;9.184;2022-07-04T01:59:43;24.50;50.40
45803;DHT22;31504;51.716;9.184;2022-07-04T02:03:02;24.50;50.40
45803;DHT22;31504;51.716;9.184;2022-07-04T02:06:03;24.50;50.40
45803;DHT22;31504;51.716;9.184;2022-07-04T02:09:03;24.50;50.40
45803;DHT22;31504;51.716;9.184;2022-07-04T02:12:16;24.50;50.40
45803;DHT22;31504;51.716;9.184;2022-07-04T02:15:37;24.50;50.40
45803;DHT22;31504;51.716;9.184;2022-07-04T02:18:38;24.50;50.40
45803;DHT22;31504;51.716;9.184;2022-07-04T02:21:38;24.50;50.30
45803;DHT22;31504;51.716;9.184;2022-07-04T02:24:39;24.50;50.40
45803;DHT22;31504;51.716;9.184;2022-07-04T02:27:40;24.40;50.30
45803;DHT22;31504;51.716;9.184;2022-07-04T02:30:40;24.50;50.40
45803;DHT22;31504;51.716;9.184;2022-07-04T02:33:41;24.50;50.30
45803;DHT22;31504;51.716;9.184;2022-07-04T02:36:41;24.50;50.30
45803;DHT22;31504;51.716;9.184;2022-07-04T02:39:42;24.50;50.30
45803;DHT22;31504;51.716;9.184;2022-07-04T02:42:42;24.50;50.30
45803;DHT22;31504;51.716;9.184;2022-07-04T02:45:43;24.50;50.30
45803;DHT22;31504;51.716;9.184;2022-07-04T02:48:43;24.50;50.30
45803;DHT22;31504;51.716;9.184;2022-07-04T02:51:44;24.50;50.20
45803;DHT22;31504;51.716;9.184;2022-07-04T02:54:44;24.50;50.30
45803;DHT22;31504;51.716;9.184;2022-07-04T02:57:45;24.40;50.20
45803;DHT22;31504;51.716;9.184;2022-07-04T03:00:46;24.40;50.20
45803;DHT22;31504;51.716;9.184;2022-07-04T03:03:47;24.50;50.80
45803;DHT22;31504;51.716;9.184;2022-07-04T03:06:47;24.40;50.10
45803;DHT22;31504;51.716;9.184;2022-07-04T03:09:48;24.40;50.10
45803;DHT22;31504;51.716;9.184;2022-07-04T03:12:48;24.40;50.20
45803;DHT22;31504;51.716;9.184;2022-07-04T03:15:49;24.40;50.00
45803;DHT22;31504;51.716;9.184;2022-07-04T03:18:49;24.40;50.00
45803;DHT22;31504;51.716;9.184;2022-07-04T03:21:50;24.40;50.00
45803;DHT22;31504;51.716;9.184;2022-07-04T03:24:50;24.40;50.00
45803;DHT22;31504;51.716;9.184;2022-07-04T03:27:51;24.40;50.00
45803;DHT22;31504;51.716;9.184;2022-07-04T03:30:51;24.40;50.00
45803;DHT22;31504;51.716;9.184;2022-07-04T03:33:52;24.40;49.90
45803;DHT22;31504;51.716;9.184;2022-07-04T03:36:53;24.40;49.90
45803;DHT22;31504;51.716;9.184;2022-07-04T03:39:53;24.40;49.90
45803;DHT22;31504;51.716;9.184;2022-07-04T03:42:54;24.40;49.90
45803;DHT22;31504;51.716;9.184;2022-07-04T03:45:54;24.40;49.90
45803;DHT22;31504;51.716;9.184;2022-07-04T03:48:55;24.40;49.90
45803;DHT22;31504;51.716;9.184;2022-07-04T03:51:56;24.40;49.80
45803;DHT22;31504;51.716;9.184;2022-07-04T03:54:56;24.40;49.80
45803;DHT22;31504;51.716;9.184;2022-07-04T03:57:57;24.40;49.80
45803;DHT22;31504;51.716;9.184;2022-07-04T04:00:57;24.40;49.80
45803;DHT22;31504;51.716;9.184;2022-07-04T04:03:58;24.40;49.70
45803;DHT22;31504;51.716;9.184;2022-07-04T04:07:17;24.40;49.70
45803;DHT22;31504;51.716;9.184;2022-07-04T04:10:19;24.40;49.70
45803;DHT22;31504;51.716;9.184;2022-07-04T04:13:19;24.40;49.70
45803;DHT22;31504;51.716;9.184;2022-07-04T04:16:20;24.40;49.70
45803;DHT22;31504;51.716;9.184;2022-07-04T04:19:20;24.40;49.70
45803;DHT22;31504;51.716;9.184;2022-07-04T04:22:21;24.40;49.70
45803;DHT22;31504;51.716;9.184;2022-07-04T04:25:21;24.40;49.70
45803;DHT22;31504;51.716;9.184;2022-07-04T04:28:22;24.40;49.70
45803;DHT22;31504;51.716;9.184;2022-07-04T04:31:23;24.40;49.70
45803;DHT22;31504;51.716;9.184;2022-07-04T04:34:23;24.40;49.60
45803;DHT22;31504;51.716;9.184;2022-07-04T04:37:24;24.40;49.70
45803;DHT22;31504;51.716;9.184;2022-07-04T04:40:24;24.40;49.60
45803;DHT22;31504;51.716;9.184;2022-07-04T04:43:25;24.40;49.70
45803;DHT22;31504;51.716;9.184;2022-07-04T04:46:25;24.40;49.60
45803;DHT22;31504;51.716;9.184;2022-07-04T04:49:26;24.40;49.70
45803;DHT22;31504;51.716;9.184;2022-07-04T04:52:26;24.40;49.60
45803;DHT22;31504;51.716;9.184;2022-07-04T04:55:27;24.40;49.70
45803;DHT22;31504;51.716;9.184;2022-07-04T04:58:27;24.30;49.60
45803;DHT22;31504;51.716;9.184;2022-07-04T05:01:28;24.40;49.60
45803;DHT22;31504;51.716;9.184;2022-07-04T05:04:29;24.30;49.70
45803;DHT22;31504;51.716;9.184;2022-07-04T05:07:29;24.30;49.70
45803;DHT22;31504;51.716;9.184;2022-07-04T05:10:30;24.30;49.90
45803;DHT22;31504;51.716;9.184;2022-07-04T05:13:31;24.30;50.10
45803;DHT22;31504;51.716;9.184;2022-07-04T05:16:31;24.30;50.00
45803;DHT22;31504;51.716;9.184;2022-07-04T05:19:32;24.20;50.40
45803;DHT22;31504;51.716;9.184;2022-07-04T05:22:32;24.20;49.50
45803;DHT22;31504;51.716;9.184;2022-07-04T05:25:33;24.20;49.40
45803;DHT22;31504;51.716;9.184;2022-07-04T05:28:34;24.20;49.30
45803;DHT22;31504;51.716;9.184;2022-07-04T05:31:34;24.10;49.20
45803;DHT22;31504;51.716;9.184;2022-07-04T05:34:35;24.10;49.20
45803;DHT22;31504;51.716;9.184;2022-07-04T05:37:35;24.10;49.20
45803;DHT22;31504;51.716;9.184;2022-07-04T05:40:36;24.10;49.10
45803;DHT22;31504;51.716;9.184;2022-07-04T05:43:36;24.10;49.00
45803;DHT22;31504;51.716;9.184;2022-07-04T05:46:37;24.10;49.10
45803;DHT22;31504;51.716;9.184;2022-07-04T05:49:37;24.00;48.90
45803;DHT22;31504;51.716;9.184;2022-07-04T05:52:38;23.90;48.90
45803;DHT22;31504;51.716;9.184;2022-07-04T05:55:38;23.90;48.90
45803;DHT22;31504;51.716;9.184;2022-07-04T05:58:39;23.90;49.00
45803;DHT22;31504;51.716;9.184;2022-07-04T06:01:40;23.90;49.00
45803;DHT22;31504;51.716;9.184;2022-07-04T06:04:41;23.90;48.90
45803;DHT22;31504;51.716;9.184;2022-07-04T06:07:43;23.90;49.00
45803;DHT22;31504;51.716;9.184;2022-07-04T06:10:44;23.90;49.10
45803;DHT22;31504;51.716;9.184;2022-07-04T06:13:44;23.90;49.10
45803;DHT22;31504;51.716;9.184;2022-07-04T06:16:45;23.90;49.20
45803;DHT22;31504;51.716;9.184;2022-07-04T06:19:46;23.90;49.20
45803;DHT22;31504;51.716;9.184;2022-07-04T06:22:47;23.90;49.20
45803;DHT22;31504;51.716;9.184;2022-07-04T06:25:49;24.00;49.30
45803;DHT22;31504;51.716;9.184;2022-07-04T06:28:49;24.00;49.40
45803;DHT22;31504;51.716;9.184;2022-07-04T06:31:50;24.00;49.50
45803;DHT22;31504;51.716;9.184;2022-07-04T06:34:50;23.90;49.60
45803;DHT22;31504;51.716;9.184;2022-07-04T06:38:19;23.90;49.70
45803;DHT22;31504;51.716;9.184;2022-07-04T06:41:20;23.90;49.70
45803;DHT22;31504;51.716;9.184;2022-07-04T06:44:21;23.90;49.60
45803;DHT22;31504;51.716;9.184;2022-07-04T06:47:21;23.90;49.60
45803;DHT22;31504;51.716;9.184;2022-07-04T06:50:22;23.90;49.60
45803;DHT22;31504;51.716;9.184;2022-07-04T06:53:22;23.90;49.60
45803;DHT22;31504;51.716;9.184;2022-07-04T06:56:23;23.90;49.50
45803;DHT22;31504;51.716;9.184;2022-07-04T06:59:23;23.90;49.50
45803;DHT22;31504;51.716;9.184;2022-07-04T07:02:24;23.90;49.50
45803;DHT22;31504;51.716;9.184;2022-07-04T07:05:28;23.90;49.50
45803;DHT22;31504;51.716;9.184;2022-07-04T07:08:30;23.90;49.50
45803;DHT22;31504;51.716;9.184;2022-07-04T07:11:30;23.90;49.50
45803;DHT22;31504;51.716;9.184;2022-07-04T07:14:31;23.90;49.40
45803;DHT22;31504;51.716;9.184;2022-07-04T07:17:31;23.90;49.40
45803;DHT22;31504;51.716;9.184;2022-07-04T07:20:33;23.90;49.40
45803;DHT22;31504;51.716;9.184;2022-07-04T07:23:33;23.80;49.60
45803;DHT22;31504;51.716;9.184;2022-07-04T07:26:34;23.80;49.60
45803;DHT22;31504;51.716;9.184;2022-07-04T07:29:35;23.80;49.50
45803;DHT22;31504;51.716;9.184;2022-07-04T07:32:36;23.80;49.40
45803;DHT22;31504;51.716;9.184;2022-07-04T07:35:37;23.80;49.30
45803;DHT22;31504;51.716;9.184;2022-07-04T07:38:38;23.90;49.40
45803;DHT22;31504;51.716;9.184;2022-07-04T07:41:38;23.80;49.40
45803;DHT22;31504;51.716;9.184;2022-07-04T07:44:39;23.80;49.40
45803;DHT22;31504;51.716;9.184;2022-07-04T07:47:39;23.80;49.30
45803;DHT22;31504;51.716;9.184;2022-07-04T07:50:40;23.80;49.30
45803;DHT22;31504;51.716;9.184;2022-07-04T07:53:41;23.80;49.30
45803;DHT22;31504;51.716;9.184;2022-07-04T07:56:41;23.80;49.50
45803;DHT22;31504;51.716;9.184;2022-07-04T07:59:42;23.80;49.20
45803;DHT22;31504;51.716;9.184;2022-07-04T08:02:42;23.80;49.10
45803;DHT22;31504;51.716;9.184;2022-07-04T08:06:01;23.80;48.90
45803;DHT22;31504;51.716;9.184;2022-07-04T08:09:02;23.80;48.70
45803;DHT22;31504;51.716;9.184;2022-07-04T08:12:04;23.80;48.70
45803;DHT22;31504;51.716;9.184;2022-07-04T08:15:06;23.80;48.70
45803;DHT22;31504;51.716;9.184;2022-07-04T08:18:06;23.80;48.70
45803;DHT22;31504;51.716;9.184;2022-07-04T08:21:07;23.90;48.60
45803;DHT22;31504;51.716;9.184;2022-07-04T08:24:08;23.80;48.50
45803;DHT22;31504;51.716;9.184;2022-07-04T08:27:08;23.80;48.50
45803;DHT22;31504;51.716;9.184;2022-07-04T08:30:09;23.80;48.20
45803;DHT22;31504;51.716;9.184;2022-07-04T08:33:10;23.80;48.30
45803;DHT22;31504;51.716;9.184;2022-07-04T08:36:10;23.80;48.20
45803;DHT22;31504;51.716;9.184;2022-07-04T08:39:11;23.80;48.20
45803;DHT22;31504;51.716;9.184;2022-07-04T08:42:16;23.80;48.00
45803;DHT22;31504;51.716;9.184;2022-07-04T08:45:28;23.80;48.00
45803;DHT22;31504;51.716;9.184;2022-07-04T08:48:30;23.80;47.80
45803;DHT22;31504;51.716;9.184;2022-07-04T08:51:41;23.80;47.60
45803;DHT22;31504;51.716;9.184;2022-07-04T08:54:44;23.80;47.60
45803;DHT22;31504;51.716;9.184;2022-07-04T08:58:04;23.80;47.60
45803;DHT22;31504;51.716;9.184;2022-07-04T09:01:24;23.80;47.40
45803;DHT22;31504;51.716;9.184;2022-07-04T09:04:25;23.80;47.20
45803;DHT22;31504;51.716;9.184;2022-07-04T09:07:29;23.80;47.10
45803;DHT22;31504;51.716;9.184;2022-07-04T09:10:30;23.80;47.10
45803;DHT22;31504;51.716;9.184;2022-07-04T09:13:32;23.80;47.00
45803;DHT22;31504;51.716;9.184;2022-07-04T09:16:32;23.80;47.00
45803;DHT22;31504;51.716;9.184;2022-07-04T09:19:33;23.80;46.80
45803;DHT22;31504;51.716;9.184;2022-07-04T09:22:34;23.80;46.80
45803;DHT22;31504;51.716;9.184;2022-07-04T09:25:34;23.80;46.80
45803;DHT22;31504;51.716;9.184;2022-07-04T09:28:35;23.80;46.80
45803;DHT22;31504;51.716;9.184;2022-07-04T09:31:37;23.80;47.10
45803;DHT22;31504;51.716;9.184;2022-07-04T09:34:54;23.80;46.60
45803;DHT22;31504;51.716;9.184;2022-07-04T09:37:57;23.90;46.50
45803;DHT22;31504;51.716;9.184;2022-07-04T09:41:00;23.80;46.50
45803;DHT22;31504;51.716;9.184;2022-07-04T09:44:24;23.80;46.60
45803;DHT22;31504;51.716;9.184;2022-07-04T09:47:28;23.80;46.00
45803;DHT22;31504;51.716;9.184;2022-07-04T09:50:29;23.80;45.30
45803;DHT22;31504;51.716;9.184;2022-07-04T09:53:29;23.70;45.10
45803;DHT22;31504;51.716;9.184;2022-07-04T09:56:51;23.70;45.00
45803;DHT22;31504;51.716;9.184;2022-07-04T09:59:51;23.70;45.00
45803;DHT22;31504;51.716;9.184;2022-07-04T10:02:53;23.60;44.70
45803;DHT22;31504;51.716;9.184;2022-07-04T10:06:06;23.60;44.50
45803;DHT22;31504;51.716;9.184;2022-07-04T10:09:09;23.70;44.70
45803;DHT22;31504;51.716;9.184;2022-07-04T10:12:25;23.70;44.50
45803;DHT22;31504;51.716;9.184;2022-07-04T10:15:26;23.70;44.10
45803;DHT22;31504;51.716;9.184;2022-07-04T10:18:27;23.70;44.00
45803;DHT22;31504;51.716;9.184;2022-07-04T10:21:29;23.70;44.00
45803;DHT22;31504;51.716;9.184;2022-07-04T10:24:30;23.70;43.90
45803;DHT22;31504;51.716;9.184;2022-07-04T10:27:31;23.70;43.60
45803;DHT22;31504;51.716;9.184;2022-07-04T10:30:34;23.60;43.70
45803;DHT22;31504;51.716;9.184;2022-07-04T10:33:36;23.60;43.70
45803;DHT22;31504;51.716;9.184;2022-07-04T10:36:37;23.60;43.50
45803;DHT22;31504;51.716;9.184;2022-07-04T10:39:38;23.60;43.50
45803;DHT22;31504;51.716;9.184;2022-07-04T10:42:39;23.60;43.30
45803;DHT22;31504;51.716;9.184;2022-07-04T10:45:39;23.60;43.40
45803;DHT22;31504;51.716;9.184;2022-07-04T10:52:14;23.60;43.30
45803;DHT22;31504;51.716;9.184;2022-07-04T10:55:15;23.60;43.40
45803;DHT22;31504;51.716;9.184;2022-07-04T10:58:38;23.60;43.30
45803;DHT22;31504;51.716;9.184;2022-07-04T11:01:45;23.60;43.30
45803;DHT22;31504;51.716;9.184;2022-07-04T11:05:02;23.60;43.20
45803;DHT22;31504;51.716;9.184;2022-07-04T11:08:03;23.60;43.30
45803;DHT22;31504;51.716;9.184;2022-07-04T11:14:46;23.60;43.40
45803;DHT22;31504;51.716;9.184;2022-07-04T11:17:48;23.60;43.30
45803;DHT22;31504;51.716;9.184;2022-07-04T11:20:48;23.60;43.60
45803;DHT22;31504;51.716;9.184;2022-07-04T11:23:49;23.60;43.70
45803;DHT22;31504;51.716;9.184;2022-07-04T11:26:50;23.60;43.80
45803;DHT22;31504;51.716;9.184;2022-07-04T11:29:55;23.60;44.00
45803;DHT22;31504;51.716;9.184;2022-07-04T11:32:56;23.60;44.00
45803;DHT22;31504;51.716;9.184;2022-07-04T11:36:03;23.60;44.10
45803;DHT22;31504;51.716;9.184;2022-07-04T11:39:06;23.60;44.00
45803;DHT22;31504;51.716;9.184;2022-07-04T11:42:07;23.60;43.90
45803;DHT22;31504;51.716;9.184;2022-07-04T11:45:26;23.60;44.00
45803;DHT22;31504;51.716;9.184;2022-07-04T11:48:27;23.60;43.80
45803;DHT22;31504;51.716;9.184;2022-07-04T11:51:27;23.60;43.50
45803;DHT22;31504;51.716;9.184;2022-07-04T11:54:28;23.60;43.90
45803;DHT22;31504;51.716;9.184;2022-07-04T11:57:38;23.60;43.50
45803;DHT22;31504;51.716;9.184;2022-07-04T12:00:38;23.60;43.30
45803;DHT22;31504;51.716;9.184;2022-07-04T12:03:39;23.60;43.40
45803;DHT22;31504;51.716;9.184;2022-07-04T12:06:39;23.60;43.50
45803;DHT22;31504;51.716;9.184;2022-07-04T12:09:41;23.60;43.70
45803;DHT22;31504;51.716;9.184;2022-07-04T12:13:07;23.70;43.60
45803;DHT22;31504;51.716;9.184;2022-07-04T12:16:14;23.70;43.70
45803;DHT22;31504;51.716;9.184;2022-07-04T12:19:16;23.60;43.50
45803;DHT22;31504;51.716;9.184;2022-07-04T12:22:37;23.70;43.70
45803;DHT22;31504;51.716;9.184;2022-07-04T12:25:38;23.70;43.60
45803;DHT22;31504;51.716;9.184;2022-07-04T12:28:41;23.60;43.70
45803;DHT22;31504;51.716;9.184;2022-07-04T12:31:42;23.60;43.80
45803;DHT22;31504;51.716;9.184;2022-07-04T12:34:44;23.60;43.60
45803;DHT22;31504;51.716;9.184;2022-07-04T12:38:09;23.70;43.80
45803;DHT22;31504;51.716;9.184;2022-07-04T12:41:12;23.70;43.80
45803;DHT22;31504;51.716;9.184;2022-07-04T12:44:20;23.70;44.00
45803;DHT22;31504;51.716;9.184;2022-07-04T12:47:21;23.70;44.00
45803;DHT22;31504;51.716;9.184;2022-07-04T12:50:26;23.80;43.90
45803;DHT22;31504;51.716;9.184;2022-07-04T12:53:38;23.70;43.80
45803;DHT22;31504;51.716;9.184;2022-07-04T12:56:44;23.70;43.80
45803;DHT22;31504;51.716;9.184;2022-07-04T12:59:45;23.70;43.70
45803;DHT22;31504;51.716;9.184;2022-07-04T13:02:45;23.70;43.70
45803;DHT22;31504;51.716;9.184;2022-07-04T13:05:46;23.70;43.60
45803;DHT22;31504;51.716;9.184;2022-07-04T13:08:46;23.70;43.50
45803;DHT22;31504;51.716;9.184;2022-07-04T13:11:47;23.70;43.40
45803;DHT22;31504;51.716;9.184;2022-07-04T13:15:07;23.70;43.30
45803;DHT22;31504;51.716;9.184;2022-07-04T13:18:11;23.60;43.10
45803;DHT22;31504;51.716;9.184;2022-07-04T13:21:12;23.70;43.00
45803;DHT22;31504;51.716;9.184;2022-07-04T13:24:13;23.70;42.90
45803;DHT22;31504;51.716;9.184;2022-07-04T13:27:13;23.70;43.00
45803;DHT22;31504;51.716;9.184;2022-07-04T13:30:14;23.70;43.00
45803;DHT22;31504;51.716;9.184;2022-07-04T13:33:14;23.70;42.50
45803;DHT22;31504;51.716;9.184;2022-07-04T13:36:15;23.70;42.20
45803;DHT22;31504;51.716;9.184;2022-07-04T13:39:18;23.70;42.40
45803;DHT22;31504;51.716;9.184;2022-07-04T13:42:19;23.70;42.20
45803;DHT22;31504;51.716;9.184;2022-07-04T13:45:39;23.70;42.20
45803;DHT22;31504;51.716;9.184;2022-07-04T13:48:41;23.70;42.20
45803;DHT22;31504;51.716;9.184;2022-07-04T13:51:41;23.70;42.60
45803;DHT22;31504;51.716;9.184;2022-07-04T13:54:42;23.70;42.20
45803;DHT22;31504;51.716;9.184;2022-07-04T13:57:42;23.80;42.30
45803;DHT22;31504;51.716;9.184;2022-07-04T14:00:43;23.80;42.30
45803;DHT22;31504;51.716;9.184;2022-07-04T14:03:47;23.80;42.50
45803;DHT22;31504;51.716;9.184;2022-07-04T14:06:47;23.80;42.50
45803;DHT22;31504;51.716;9.184;2022-07-04T14:09:48;23.80;43.20
45803;DHT22;31504;51.716;9.184;2022-07-04T14:12:48;23.80;42.60
45803;DHT22;31504;51.716;9.184;2022-07-04T14:15:49;23.80;42.80
45803;DHT22;31504;51.716;9.184;2022-07-04T14:18:49;23.80;42.30
45803;DHT22;31504;51.716;9.184;2022-07-04T14:21:50;23.80;42.30
45803;DHT22;31504;51.716;9.184;2022-07-04T14:24:52;23.80;42.10
45803;DHT22;31504;51.716;9.184;2022-07-04T14:27:52;23.80;41.80
45803;DHT22;31504;51.716;9.184;2022-07-04T14:30:53;23.80;41.80
45803;DHT22;31504;51.716;9.184;2022-07-04T14:33:54;23.80;41.70
45803;DHT22;31504;51.716;9.184;2022-07-04T14:36:56;23.80;41.70
45803;DHT22;31504;51.716;9.184;2022-07-04T14:39:57;23.80;41.70
45803;DHT22;31504;51.716;9.184;2022-07-04T14:42:58;23.80;41.60
45803;DHT22;31504;51.716;9.184;2022-07-04T14:45:58;23.80;41.60
45803;DHT22;31504;51.716;9.184;2022-07-04T14:48:59;23.80;41.60
45803;DHT22;31504;51.716;9.184;2022-07-04T14:51:59;23.80;42.00
45803;DHT22;31504;51.716;9.184;2022-07-04T14:55:00;23.80;42.20
45803;DHT22;31504;51.716;9.184;2022-07-04T14:58:00;23.80;42.30
45803;DHT22;31504;51.716;9.184;2022-07-04T15:01:01;23.80;42.20
45803;DHT22;31504;51.716;9.184;2022-07-04T15:04:01;23.80;42.20
45803;DHT22;31504;51.716;9.184;2022-07-04T15:07:02;23.80;42.20
45803;DHT22;31504;51.716;9.184;2022-07-04T15:10:03;23.80;42.30
45803;DHT22;31504;51.716;9.184;2022-07-04T15:13:03;23.80;42.00
45803;DHT22;31504;51.716;9.184;2022-07-04T15:16:04;23.80;42.00
45803;DHT22;31504;51.716;9.184;2022-07-04T15:19:05;23.90;42.20
45803;DHT22;31504;51.716;9.184;2022-07-04T15:22:07;23.90;42.00
45803;DHT22;31504;51.716;9.184;2022-07-04T15:25:26;23.80;41.70
45803;DHT22;31504;51.716;9.184;2022-07-04T15:28:26;23.80;41.80
45803;DHT22;31504;51.716;9.184;2022-07-04T15:31:27;23.80;41.80
45803;DHT22;31504;51.716;9.184;2022-07-04T15:34:27;23.80;41.60
45803;DHT22;31504;51.716;9.184;2022-07-04T15:37:28;23.80;42.10
45803;DHT22;31504;51.716;9.184;2022-07-04T15:40:29;23.80;41.40
45803;DHT22;31504;51.716;9.184;2022-07-04T15:43:29;23.80;41.30
45803;DHT22;31504;51.716;9.184;2022-07-04T15:46:30;23.80;41.10
45803;DHT22;31504;51.716;9.184;2022-07-04T15:49:31;23.80;41.10
45803;DHT22;31504;51.716;9.184;2022-07-04T15:52:32;23.80;41.00
45803;DHT22;31504;51.716;9.184;2022-07-04T15:55:32;23.80;41.10
45803;DHT22;31504;51.716;9.184;2022-07-04T15:58:33;23.80;40.80
45803;DHT22;31504;51.716;9.184;2022-07-04T16:01:33;23.80;40.80
45803;DHT22;31504;51.716;9.184;2022-07-04T16:04:34;23.80;40.80
45803;DHT22;31504;51.716;9.184;2022-07-04T16:07:35;23.80;40.90
45803;DHT22;31504;51.716;9.184;2022-07-04T16:10:36;23.80;40.80
45803;DHT22;31504;51.716;9.184;2022-07-04T16:13:36;23.80;40.80
45803;DHT22;31504;51.716;9.184;2022-07-04T16:16:37;23.80;40.90
45803;DHT22;31504;51.716;9.184;2022-07-04T16:19:37;23.80;40.90
45803;DHT22;31504;51.716;9.184;2022-07-04T16:22:38;23.80;40.80
45803;DHT22;31504;51.716;9.184;2022-07-04T16:25:38;23.90;40.90
45803;DHT22;31504;51.716;9.184;2022-07-04T16:28:39;23.80;40.60
45803;DHT22;31504;51.716;9.184;2022-07-04T16:31:40;23.90;40.80
45803;DHT22;31504;51.716;9.184;2022-07-04T16:34:40;23.90;40.70
45803;DHT22;31504;51.716;9.184;2022-07-04T16:37:41;23.90;41.20
45803;DHT22;31504;51.716;9.184;2022-07-04T16:40:41;23.90;40.60
45803;DHT22;31504;51.716;9.184;2022-07-04T16:43:42;23.90;40.70
45803;DHT22;31504;51.716;9.184;2022-07-04T16:46:42;23.90;40.40
45803;DHT22;31504;51.716;9.184;2022-07-04T16:49:43;23.80;40.10
45803;DHT22;31504;51.716;9.184;2022-07-04T16:52:43;23.80;39.90
45803;DHT22;31504;51.716;9.184;2022-07-04T16:55:44;23.80;40.10
45803;DHT22;31504;51.716;9.184;2022-07-04T16:58:44;23.90;40.00
45803;DHT22;31504;51.716;9.184;2022-07-04T17:01:45;23.90;39.80
45803;DHT22;31504;51.716;9.184;2022-07-04T17:04:45;23.90;39.70
45803;DHT22;31504;51.716;9.184;2022-07-04T17:07:47;23.80;40.00
45803;DHT22;31504;51.716;9.184;2022-07-04T17:10:48;23.90;40.00
45803;DHT22;31504;51.716;9.184;2022-07-04T17:13:48;23.90;40.10
45803;DHT22;31504;51.716;9.184;2022-07-04T17:16:50;23.80;40.00
45803;DHT22;31504;51.716;9.184;2022-07-04T17:19:50;23.80;39.70
45803;DHT22;31504;51.716;9.184;2022-07-04T17:22:50;23.90;39.80
45803;DHT22;31504;51.716;9.184;2022-07-04T17:25:51;23.80;39.50
45803;DHT22;31504;51.716;9.184;2022-07-04T17:28:52;23.80;39.80
45803;DHT22;31504;51.716;9.184;2022-07-04T17:31:52;23.80;40.10
45803;DHT22;31504;51.716;9.184;2022-07-04T17:34:53;23.90;40.20
45803;DHT22;31504;51.716;9.184;2022-07-04T17:37:53;23.90;40.50
45803;DHT22;31504;51.716;9.184;2022-07-04T17:40:54;23.90;40.40
45803;DHT22;31504;51.716;9.184;2022-07-04T17:44:13;23.90;40.50
45803;DHT22;31504;51.716;9.184;2022-07-04T17:47:14;23.90;40.60
45803;DHT22;31504;51.716;9.184;2022-07-04T17:50:14;23.90;40.80
45803;DHT22;31504;51.716;9.184;2022-07-04T17:53:15;23.90;40.70
45803;DHT22;31504;51.716;9.184;2022-07-04T17:56:15;23.90;40.70
45803;DHT22;31504;51.716;9.184;2022-07-04T17:59:16;23.90;40.90
45803;DHT22;31504;51.716;9.184;2022-07-04T18:02:17;24.00;41.10
45803;DHT22;31504;51.716;9.184;2022-07-04T18:05:18;24.00;41.10
45803;DHT22;31504;51.716;9.184;2022-07-04T18:08:18;24.00;41.20
45803;DHT22;31504;51.716;9.184;2022-07-04T18:11:19;24.00;41.20
45803;DHT22;31504;51.716;9.184;2022-07-04T18:14:19;24.00;41.40
45803;DHT22;31504;51.716;9.184;2022-07-04T18:17:21;24.00;41.40
45803;DHT22;31504;51.716;9.184;2022-07-04T18:20:21;24.00;41.50
45803;DHT22;31504;51.716;9.184;2022-07-04T18:23:22;24.00;41.60
45803;DHT22;31504;51.716;9.184;2022-07-04T18:26:23;24.00;41.70
45803;DHT22;31504;51.716;9.184;2022-07-04T18:29:23;24.00;41.70
45803;DHT22;31504;51.716;9.184;2022-07-04T18:32:23;24.00;41.80
45803;DHT22;31504;51.716;9.184;2022-07-04T18:35:25;24.00;41.90
45803;DHT22;31504;51.716;9.184;2022-07-04T18:38:26;24.00;42.00
45803;DHT22;31504;51.716;9.184;2022-07-04T18:41:26;24.00;42.10
45803;DHT22;31504;51.716;9.184;2022-07-04T18:44:45;24.00;42.20
45803;DHT22;31504;51.716;9.184;2022-07-04T18:47:46;24.00;42.40
45803;DHT22;31504;51.716;9.184;2022-07-04T18:50:47;24.00;42.30
45803;DHT22;31504;51.716;9.184;2022-07-04T18:53:48;24.10;42.40
45803;DHT22;31504;51.716;9.184;2022-07-04T18:56:48;24.00;43.00
45803;DHT22;31504;51.716;9.184;2022-07-04T18:59:49;24.10;42.50
45803;DHT22;31504;51.716;9.184;2022-07-04T19:02:49;24.10;42.60
45803;DHT22;31504;51.716;9.184;2022-07-04T19:05:50;24.10;42.60
45803;DHT22;31504;51.716;9.184;2022-07-04T19:08:51;24.10;42.70
45803;DHT22;31504;51.716;9.184;2022-07-04T19:11:51;24.10;42.70
45803;DHT22;31504;51.716;9.184;2022-07-04T19:14:52;24.10;42.80
45803;DHT22;31504;51.716;9.184;2022-07-04T19:17:53;24.10;42.90